sensor_id;sensor_type;location;lat;lon;timestamp;pressure;altitude;pressure_sealevel;temperature
69530;BMP180;56727;47.188;8.840;2023-12-28T00:01:24;97340.20;;;10.50
69530;BMP180;56727;47.188;8.840;2023-12-28T00:03:51;97328.80;;;10.52
69530;BMP180;56727;47.188;8.840;2023-12-28T00:06:19;97330.80;;;10.58
69530;BMP180;56727;47.188;8.840;2023-12-28T00:08:46;97323.80;;;10.60
69530;BMP180;56727;47.188;8.840;2023-12-28T00:11:12;97334.00;;;10.60
69530;BMP180;56727;47.188;8.840;2023-12-28T00:13:38;97335.00;;;10.62
69530;BMP180;56727;47.188;8.840;2023-12-28T00:16:05;97338.20;;;10.70
69530;BMP180;56727;47.188;8.840;2023-12-28T00:18:31;97330.40;;;10.70
69530;BMP180;56727;47.188;8.840;2023-12-28T00:20:57;97326.80;;;10.70
69530;BMP180;56727;47.188;8.840;2023-12-28T00:23:23;97318.40;;;10.70
69530;BMP180;56727;47.188;8.840;2023-12-28T00:25:49;97311.60;;;10.70
69530;BMP180;56727;47.188;8.840;2023-12-28T00:28:14;97304.80;;;10.70
69530;BMP180;56727;47.188;8.840;2023-12-28T00:30:40;97312.20;;;10.70
69530;BMP180;56727;47.188;8.840;2023-12-28T00:33:06;97315.60;;;10.62
69530;BMP180;56727;47.188;8.840;2023-12-28T00:35:32;97310.20;;;10.60
69530;BMP180;56727;47.188;8.840;2023-12-28T00:37:57;97312.40;;;10.60
69530;BMP180;56727;47.188;8.840;2023-12-28T00:40:23;97315.40;;;10.50
69530;BMP180;56727;47.188;8.840;2023-12-28T00:42:49;97319.80;;;10.50
69530;BMP180;56727;47.188;8.840;2023-12-28T00:45:15;97321.80;;;10.50
69530;BMP180;56727;47.188;8.840;2023-12-28T00:47:41;97323.00;;;10.40
69530;BMP180;56727;47.188;8.840;2023-12-28T00:50:09;97325.40;;;10.40
69530;BMP180;56727;47.188;8.840;2023-12-28T00:52:41;97333.40;;;10.40
69530;BMP180;56727;47.188;8.840;2023-12-28T00:55:07;97340.40;;;10.40
69530;BMP180;56727;47.188;8.840;2023-12-28T00:57:34;97352.00;;;10.38
69530;BMP180;56727;47.188;8.840;2023-12-28T01:00:00;97351.80;;;10.30
69530;BMP180;56727;47.188;8.840;2023-12-28T01:02:27;97350.20;;;10.30
69530;BMP180;56727;47.188;8.840;2023-12-28T01:04:53;97353.80;;;10.30
69530;BMP180;56727;47.188;8.840;2023-12-28T01:07:19;97350.40;;;10.30
69530;BMP180;56727;47.188;8.840;2023-12-28T01:09:45;97350.40;;;10.30
69530;BMP180;56727;47.188;8.840;2023-12-28T01:12:11;97355.60;;;10.30
69530;BMP180;56727;47.188;8.840;2023-12-28T01:14:36;97353.40;;;10.30
69530;BMP180;56727;47.188;8.840;2023-12-28T01:17:02;97368.80;;;10.30
69530;BMP180;56727;47.188;8.840;2023-12-28T01:19:28;97377.00;;;10.30
69530;BMP180;56727;47.188;8.840;2023-12-28T01:21:54;97385.40;;;10.22
69530;BMP180;56727;47.188;8.840;2023-12-28T01:24:20;97386.20;;;10.20
69530;BMP180;56727;47.188;8.840;2023-12-28T01:26:46;97377.00;;;10.20
69530;BMP180;56727;47.188;8.840;2023-12-28T01:29:11;97381.40;;;10.18
69530;BMP180;56727;47.188;8.840;2023-12-28T01:31:37;97368.80;;;10.12
69530;BMP180;56727;47.188;8.840;2023-12-28T01:34:04;97368.00;;;10.10
69530;BMP180;56727;47.188;8.840;2023-12-28T01:36:30;97372.40;;;10.10
69530;BMP180;56727;47.188;8.840;2023-12-28T01:38:56;97378.00;;;10.10
69530;BMP180;56727;47.188;8.840;2023-12-28T01:41:22;97376.40;;;10.10
69530;BMP180;56727;47.188;8.840;2023-12-28T01:43:48;97381.60;;;10.10
69530;BMP180;56727;47.188;8.840;2023-12-28T01:46:17;97383.20;;;10.10
69530;BMP180;56727;47.188;8.840;2023-12-28T01:48:47;97385.00;;;10.06
69530;BMP180;56727;47.188;8.840;2023-12-28T01:51:15;97392.40;;;10.04
69530;BMP180;56727;47.188;8.840;2023-12-28T01:53:43;97401.60;;;10.00
69530;BMP180;56727;47.188;8.840;2023-12-28T01:56:09;97404.80;;;10.00
69530;BMP180;56727;47.188;8.840;2023-12-28T01:58:38;97403.80;;;10.00
69530;BMP180;56727;47.188;8.840;2023-12-28T02:01:06;97408.40;;;10.02
69530;BMP180;56727;47.188;8.840;2023-12-28T02:03:32;97411.20;;;10.00
69530;BMP180;56727;47.188;8.840;2023-12-28T02:06:00;97411.40;;;10.00
69530;BMP180;56727;47.188;8.840;2023-12-28T02:08:27;97427.40;;;9.94
69530;BMP180;56727;47.188;8.840;2023-12-28T02:10:53;97427.00;;;9.94
69530;BMP180;56727;47.188;8.840;2023-12-28T02:13:21;97429.40;;;9.90
69530;BMP180;56727;47.188;8.840;2023-12-28T02:16:09;97432.80;;;9.90
69530;BMP180;56727;47.188;8.840;2023-12-28T02:18:44;97437.80;;;9.90
69530;BMP180;56727;47.188;8.840;2023-12-28T02:21:13;97433.60;;;9.84
69530;BMP180;56727;47.188;8.840;2023-12-28T02:23:46;97430.80;;;9.80
69530;BMP180;56727;47.188;8.840;2023-12-28T02:26:11;97442.20;;;9.74
69530;BMP180;56727;47.188;8.840;2023-12-28T02:28:37;97438.20;;;9.72
69530;BMP180;56727;47.188;8.840;2023-12-28T02:31:05;97443.80;;;9.70
69530;BMP180;56727;47.188;8.840;2023-12-28T02:33:49;97449.60;;;9.68
69530;BMP180;56727;47.188;8.840;2023-12-28T02:36:21;97447.60;;;9.70
69530;BMP180;56727;47.188;8.840;2023-12-28T02:38:51;97449.80;;;9.80
69530;BMP180;56727;47.188;8.840;2023-12-28T02:41:19;97446.80;;;9.80
69530;BMP180;56727;47.188;8.840;2023-12-28T02:43:48;97441.60;;;9.82
69530;BMP180;56727;47.188;8.840;2023-12-28T02:46:14;97438.40;;;9.90
69530;BMP180;56727;47.188;8.840;2023-12-28T02:48:40;97429.00;;;9.90
69530;BMP180;56727;47.188;8.840;2023-12-28T02:51:06;97426.00;;;9.90
69530;BMP180;56727;47.188;8.840;2023-12-28T02:53:31;97426.60;;;9.90
69530;BMP180;56727;47.188;8.840;2023-12-28T02:55:57;97423.00;;;10.00
69530;BMP180;56727;47.188;8.840;2023-12-28T02:58:23;97423.40;;;10.00
69530;BMP180;56727;47.188;8.840;2023-12-28T03:00:49;97426.80;;;10.04
69530;BMP180;56727;47.188;8.840;2023-12-28T03:03:15;97429.00;;;10.02
69530;BMP180;56727;47.188;8.840;2023-12-28T03:05:40;97433.40;;;10.00
69530;BMP180;56727;47.188;8.840;2023-12-28T03:08:07;97428.20;;;9.98
69530;BMP180;56727;47.188;8.840;2023-12-28T03:10:32;97418.40;;;9.92
69530;BMP180;56727;47.188;8.840;2023-12-28T03:12:58;97417.20;;;9.92
69530;BMP180;56727;47.188;8.840;2023-12-28T03:15:24;97404.60;;;9.90
69530;BMP180;56727;47.188;8.840;2023-12-28T03:17:50;97403.80;;;9.90
69530;BMP180;56727;47.188;8.840;2023-12-28T03:20:16;97409.40;;;9.90
69530;BMP180;56727;47.188;8.840;2023-12-28T03:22:42;97415.60;;;9.90
69530;BMP180;56727;47.188;8.840;2023-12-28T03:25:08;97414.80;;;9.90
69530;BMP180;56727;47.188;8.840;2023-12-28T03:27:34;97411.60;;;9.90
69530;BMP180;56727;47.188;8.840;2023-12-28T03:29:59;97405.60;;;9.90
69530;BMP180;56727;47.188;8.840;2023-12-28T03:32:25;97408.60;;;9.86
69530;BMP180;56727;47.188;8.840;2023-12-28T03:34:51;97407.40;;;9.80
69530;BMP180;56727;47.188;8.840;2023-12-28T03:37:17;97407.80;;;9.80
69530;BMP180;56727;47.188;8.840;2023-12-28T03:39:42;97399.00;;;9.80
69530;BMP180;56727;47.188;8.840;2023-12-28T03:42:09;97408.40;;;9.74
69530;BMP180;56727;47.188;8.840;2023-12-28T03:44:35;97404.40;;;9.70
69530;BMP180;56727;47.188;8.840;2023-12-28T03:47:01;97398.00;;;9.70
69530;BMP180;56727;47.188;8.840;2023-12-28T03:49:27;97407.40;;;9.70
69530;BMP180;56727;47.188;8.840;2023-12-28T03:51:53;97403.60;;;9.70
69530;BMP180;56727;47.188;8.840;2023-12-28T03:54:19;97409.00;;;9.70
69530;BMP180;56727;47.188;8.840;2023-12-28T03:56:46;97402.80;;;9.70
69530;BMP180;56727;47.188;8.840;2023-12-28T03:59:13;97413.00;;;9.70
69530;BMP180;56727;47.188;8.840;2023-12-28T04:01:40;97404.20;;;9.70
69530;BMP180;56727;47.188;8.840;2023-12-28T04:04:06;97407.40;;;9.70
69530;BMP180;56727;47.188;8.840;2023-12-28T04:06:32;97406.60;;;9.70
69530;BMP180;56727;47.188;8.840;2023-12-28T04:08:58;97412.60;;;9.70
69530;BMP180;56727;47.188;8.840;2023-12-28T04:11:24;97408.40;;;9.70
69530;BMP180;56727;47.188;8.840;2023-12-28T04:13:50;97401.60;;;9.70
69530;BMP180;56727;47.188;8.840;2023-12-28T04:16:16;97395.60;;;9.70
69530;BMP180;56727;47.188;8.840;2023-12-28T04:18:43;97384.80;;;9.70
69530;BMP180;56727;47.188;8.840;2023-12-28T04:21:10;97392.00;;;9.70
69530;BMP180;56727;47.188;8.840;2023-12-28T04:23:37;97394.80;;;9.70
69530;BMP180;56727;47.188;8.840;2023-12-28T04:26:04;97386.20;;;9.70
69530;BMP180;56727;47.188;8.840;2023-12-28T04:28:30;97393.20;;;9.70
69530;BMP180;56727;47.188;8.840;2023-12-28T04:30:56;97400.00;;;9.70
69530;BMP180;56727;47.188;8.840;2023-12-28T04:33:22;97405.00;;;9.70
69530;BMP180;56727;47.188;8.840;2023-12-28T04:35:48;97405.40;;;9.72
69530;BMP180;56727;47.188;8.840;2023-12-28T04:38:14;97398.20;;;9.74
69530;BMP180;56727;47.188;8.840;2023-12-28T04:40:40;97405.80;;;9.80
69530;BMP180;56727;47.188;8.840;2023-12-28T04:43:07;97408.20;;;9.74
69530;BMP180;56727;47.188;8.840;2023-12-28T04:45:33;97412.40;;;9.80
69530;BMP180;56727;47.188;8.840;2023-12-28T04:47:59;97403.60;;;9.78
69530;BMP180;56727;47.188;8.840;2023-12-28T04:50:27;97414.60;;;9.78
69530;BMP180;56727;47.188;8.840;2023-12-28T04:52:52;97413.00;;;9.80
69530;BMP180;56727;47.188;8.840;2023-12-28T04:55:18;97412.20;;;9.76
69530;BMP180;56727;47.188;8.840;2023-12-28T04:57:44;97407.00;;;9.70
69530;BMP180;56727;47.188;8.840;2023-12-28T05:00:11;97420.00;;;9.70
69530;BMP180;56727;47.188;8.840;2023-12-28T05:02:37;97412.20;;;9.70
69530;BMP180;56727;47.188;8.840;2023-12-28T05:05:04;97400.60;;;9.70
69530;BMP180;56727;47.188;8.840;2023-12-28T05:07:30;97401.80;;;9.70
69530;BMP180;56727;47.188;8.840;2023-12-28T05:09:55;97392.80;;;9.70
69530;BMP180;56727;47.188;8.840;2023-12-28T05:12:21;97388.00;;;9.70
69530;BMP180;56727;47.188;8.840;2023-12-28T05:14:47;97380.00;;;9.70
69530;BMP180;56727;47.188;8.840;2023-12-28T05:17:13;97391.00;;;9.70
69530;BMP180;56727;47.188;8.840;2023-12-28T05:19:38;97394.60;;;9.70
69530;BMP180;56727;47.188;8.840;2023-12-28T05:22:04;97384.80;;;9.70
69530;BMP180;56727;47.188;8.840;2023-12-28T05:24:33;97396.20;;;9.70
69530;BMP180;56727;47.188;8.840;2023-12-28T05:26:58;97400.80;;;9.70
69530;BMP180;56727;47.188;8.840;2023-12-28T05:29:24;97398.60;;;9.76
69530;BMP180;56727;47.188;8.840;2023-12-28T05:31:50;97399.80;;;9.80
69530;BMP180;56727;47.188;8.840;2023-12-28T05:34:16;97401.20;;;9.86
69530;BMP180;56727;47.188;8.840;2023-12-28T05:36:41;97406.20;;;9.88
69530;BMP180;56727;47.188;8.840;2023-12-28T05:39:11;97401.20;;;9.90
69530;BMP180;56727;47.188;8.840;2023-12-28T05:41:39;97391.20;;;9.96
69530;BMP180;56727;47.188;8.840;2023-12-28T05:44:06;97395.80;;;10.04
69530;BMP180;56727;47.188;8.840;2023-12-28T05:46:32;97392.60;;;10.08
69530;BMP180;56727;47.188;8.840;2023-12-28T05:48:58;97385.60;;;10.10
69530;BMP180;56727;47.188;8.840;2023-12-28T05:51:24;97394.40;;;10.10
69530;BMP180;56727;47.188;8.840;2023-12-28T05:53:49;97390.40;;;10.18
69530;BMP180;56727;47.188;8.840;2023-12-28T05:56:15;97391.20;;;10.20
69530;BMP180;56727;47.188;8.840;2023-12-28T05:58:41;97384.00;;;10.20
69530;BMP180;56727;47.188;8.840;2023-12-28T06:01:07;97374.60;;;10.20
69530;BMP180;56727;47.188;8.840;2023-12-28T06:03:33;97375.60;;;10.20
69530;BMP180;56727;47.188;8.840;2023-12-28T06:05:59;97381.40;;;10.20
69530;BMP180;56727;47.188;8.840;2023-12-28T06:08:25;97371.00;;;10.26
69530;BMP180;56727;47.188;8.840;2023-12-28T06:10:51;97381.20;;;10.28
69530;BMP180;56727;47.188;8.840;2023-12-28T06:13:17;97382.20;;;10.20
69530;BMP180;56727;47.188;8.840;2023-12-28T06:15:43;97373.20;;;10.20
69530;BMP180;56727;47.188;8.840;2023-12-28T06:18:09;97376.20;;;10.20
69530;BMP180;56727;47.188;8.840;2023-12-28T06:20:35;97371.60;;;10.20
69530;BMP180;56727;47.188;8.840;2023-12-28T06:23:02;97381.40;;;10.20
69530;BMP180;56727;47.188;8.840;2023-12-28T06:25:28;97380.80;;;10.20
69530;BMP180;56727;47.188;8.840;2023-12-28T06:27:54;97378.80;;;10.20
69530;BMP180;56727;47.188;8.840;2023-12-28T06:30:20;97375.20;;;10.18
69530;BMP180;56727;47.188;8.840;2023-12-28T06:32:45;97378.00;;;10.16
69530;BMP180;56727;47.188;8.840;2023-12-28T06:35:11;97377.40;;;10.18
69530;BMP180;56727;47.188;8.840;2023-12-28T06:37:37;97380.00;;;10.18
69530;BMP180;56727;47.188;8.840;2023-12-28T06:40:04;97374.20;;;10.12
69530;BMP180;56727;47.188;8.840;2023-12-28T06:42:30;97372.00;;;10.12
69530;BMP180;56727;47.188;8.840;2023-12-28T06:44:55;97368.60;;;10.12
69530;BMP180;56727;47.188;8.840;2023-12-28T06:47:21;97369.00;;;10.16
69530;BMP180;56727;47.188;8.840;2023-12-28T06:49:47;97367.80;;;10.16
69530;BMP180;56727;47.188;8.840;2023-12-28T06:52:13;97376.60;;;10.14
69530;BMP180;56727;47.188;8.840;2023-12-28T06:54:39;97368.80;;;10.14
69530;BMP180;56727;47.188;8.840;2023-12-28T06:57:05;97375.60;;;10.16
69530;BMP180;56727;47.188;8.840;2023-12-28T06:59:30;97372.60;;;10.18
69530;BMP180;56727;47.188;8.840;2023-12-28T07:01:56;97380.20;;;10.20
69530;BMP180;56727;47.188;8.840;2023-12-28T07:04:22;97377.60;;;10.20
69530;BMP180;56727;47.188;8.840;2023-12-28T07:06:51;97376.80;;;10.20
69530;BMP180;56727;47.188;8.840;2023-12-28T07:09:16;97375.40;;;10.20
69530;BMP180;56727;47.188;8.840;2023-12-28T07:11:42;97374.80;;;10.28
69530;BMP180;56727;47.188;8.840;2023-12-28T07:14:08;97381.80;;;10.30
69530;BMP180;56727;47.188;8.840;2023-12-28T07:16:34;97377.20;;;10.30
69530;BMP180;56727;47.188;8.840;2023-12-28T07:19:00;97368.80;;;10.30
69530;BMP180;56727;47.188;8.840;2023-12-28T07:21:25;97377.60;;;10.30
69530;BMP180;56727;47.188;8.840;2023-12-28T07:23:51;97374.60;;;10.30
69530;BMP180;56727;47.188;8.840;2023-12-28T07:26:17;97382.00;;;10.30
69530;BMP180;56727;47.188;8.840;2023-12-28T07:28:43;97379.20;;;10.36
69530;BMP180;56727;47.188;8.840;2023-12-28T07:31:10;97371.80;;;10.40
69530;BMP180;56727;47.188;8.840;2023-12-28T07:33:36;97383.80;;;10.38
69530;BMP180;56727;47.188;8.840;2023-12-28T07:36:02;97381.00;;;10.44
69530;BMP180;56727;47.188;8.840;2023-12-28T07:38:29;97380.80;;;10.50
69530;BMP180;56727;47.188;8.840;2023-12-28T07:40:55;97378.60;;;10.50
69530;BMP180;56727;47.188;8.840;2023-12-28T07:43:21;97389.80;;;10.50
69530;BMP180;56727;47.188;8.840;2023-12-28T07:45:47;97384.20;;;10.56
69530;BMP180;56727;47.188;8.840;2023-12-28T07:48:13;97390.80;;;10.60
69530;BMP180;56727;47.188;8.840;2023-12-28T07:50:39;97410.20;;;10.60
69530;BMP180;56727;47.188;8.840;2023-12-28T07:53:04;97410.20;;;10.70
69530;BMP180;56727;47.188;8.840;2023-12-28T07:55:30;97421.20;;;10.70
69530;BMP180;56727;47.188;8.840;2023-12-28T07:57:56;97415.60;;;10.80
69530;BMP180;56727;47.188;8.840;2023-12-28T08:00:22;97419.00;;;10.84
69530;BMP180;56727;47.188;8.840;2023-12-28T08:02:48;97418.80;;;10.90
69530;BMP180;56727;47.188;8.840;2023-12-28T08:05:13;97423.80;;;10.94
69530;BMP180;56727;47.188;8.840;2023-12-28T08:07:39;97422.00;;;11.02
69530;BMP180;56727;47.188;8.840;2023-12-28T08:10:06;97422.80;;;11.10
69530;BMP180;56727;47.188;8.840;2023-12-28T08:12:32;97424.80;;;11.10
69530;BMP180;56727;47.188;8.840;2023-12-28T08:14:59;97428.00;;;11.20
69530;BMP180;56727;47.188;8.840;2023-12-28T08:17:25;97427.80;;;11.20
69530;BMP180;56727;47.188;8.840;2023-12-28T08:19:51;97417.00;;;11.22
69530;BMP180;56727;47.188;8.840;2023-12-28T08:22:17;97422.40;;;11.30
69530;BMP180;56727;47.188;8.840;2023-12-28T08:24:43;97427.40;;;11.30
69530;BMP180;56727;47.188;8.840;2023-12-28T08:27:09;97427.60;;;11.40
69530;BMP180;56727;47.188;8.840;2023-12-28T08:29:34;97424.80;;;11.50
69530;BMP180;56727;47.188;8.840;2023-12-28T08:32:00;97424.80;;;11.50
69530;BMP180;56727;47.188;8.840;2023-12-28T08:34:26;97425.20;;;11.58
69530;BMP180;56727;47.188;8.840;2023-12-28T08:36:53;97418.40;;;11.60
69530;BMP180;56727;47.188;8.840;2023-12-28T08:39:19;97414.80;;;11.60
69530;BMP180;56727;47.188;8.840;2023-12-28T08:41:45;97418.20;;;11.60
69530;BMP180;56727;47.188;8.840;2023-12-28T08:44:11;97422.40;;;11.64
69530;BMP180;56727;47.188;8.840;2023-12-28T08:46:37;97421.60;;;11.62
69530;BMP180;56727;47.188;8.840;2023-12-28T08:49:02;97420.40;;;11.66
69530;BMP180;56727;47.188;8.840;2023-12-28T08:51:28;97429.00;;;11.76
69530;BMP180;56727;47.188;8.840;2023-12-28T08:53:54;97423.20;;;11.80
69530;BMP180;56727;47.188;8.840;2023-12-28T08:56:21;97414.20;;;11.90
69530;BMP180;56727;47.188;8.840;2023-12-28T08:58:49;97419.40;;;12.00
69530;BMP180;56727;47.188;8.840;2023-12-28T09:01:21;97420.00;;;12.04
69530;BMP180;56727;47.188;8.840;2023-12-28T09:03:52;97418.00;;;12.10
69530;BMP180;56727;47.188;8.840;2023-12-28T09:06:19;97409.40;;;12.24
69530;BMP180;56727;47.188;8.840;2023-12-28T09:08:49;97407.60;;;12.32
69530;BMP180;56727;47.188;8.840;2023-12-28T09:11:16;97414.00;;;12.40
69530;BMP180;56727;47.188;8.840;2023-12-28T09:13:42;97408.00;;;12.48
69530;BMP180;56727;47.188;8.840;2023-12-28T09:16:12;97402.80;;;12.50
69530;BMP180;56727;47.188;8.840;2023-12-28T09:18:39;97403.40;;;12.56
69530;BMP180;56727;47.188;8.840;2023-12-28T09:21:08;97406.00;;;12.60
69530;BMP180;56727;47.188;8.840;2023-12-28T09:23:35;97411.20;;;12.60
69530;BMP180;56727;47.188;8.840;2023-12-28T09:26:02;97411.80;;;12.60
69530;BMP180;56727;47.188;8.840;2023-12-28T09:28:29;97414.40;;;12.66
69530;BMP180;56727;47.188;8.840;2023-12-28T09:30:56;97412.00;;;12.70
69530;BMP180;56727;47.188;8.840;2023-12-28T09:33:22;97406.40;;;12.70
69530;BMP180;56727;47.188;8.840;2023-12-28T09:35:48;97408.80;;;12.70
69530;BMP180;56727;47.188;8.840;2023-12-28T09:38:14;97397.00;;;12.70
69530;BMP180;56727;47.188;8.840;2023-12-28T09:40:44;97407.80;;;12.70
69530;BMP180;56727;47.188;8.840;2023-12-28T09:43:30;97404.80;;;12.70
69530;BMP180;56727;47.188;8.840;2023-12-28T09:46:06;97403.00;;;12.78
69530;BMP180;56727;47.188;8.840;2023-12-28T09:48:37;97409.20;;;12.76
69530;BMP180;56727;47.188;8.840;2023-12-28T09:51:06;97404.00;;;12.70
69530;BMP180;56727;47.188;8.840;2023-12-28T09:53:32;97406.20;;;12.70
69530;BMP180;56727;47.188;8.840;2023-12-28T09:56:00;97404.60;;;12.70
69530;BMP180;56727;47.188;8.840;2023-12-28T09:58:26;97408.00;;;12.72
69530;BMP180;56727;47.188;8.840;2023-12-28T10:00:53;97415.00;;;12.76
69530;BMP180;56727;47.188;8.840;2023-12-28T10:03:19;97417.00;;;12.76
69530;BMP180;56727;47.188;8.840;2023-12-28T10:05:46;97421.00;;;12.80
69530;BMP180;56727;47.188;8.840;2023-12-28T10:08:14;97424.60;;;12.80
69530;BMP180;56727;47.188;8.840;2023-12-28T10:10:41;97426.40;;;12.80
69530;BMP180;56727;47.188;8.840;2023-12-28T10:13:08;97413.20;;;12.86
69530;BMP180;56727;47.188;8.840;2023-12-28T10:15:38;97425.60;;;12.90
69530;BMP180;56727;47.188;8.840;2023-12-28T10:18:05;97422.00;;;12.90
69530;BMP180;56727;47.188;8.840;2023-12-28T10:20:32;97423.60;;;12.90
69530;BMP180;56727;47.188;8.840;2023-12-28T10:22:59;97421.80;;;12.90
69530;BMP180;56727;47.188;8.840;2023-12-28T10:25:25;97422.60;;;12.90
69530;BMP180;56727;47.188;8.840;2023-12-28T10:27:53;97410.20;;;12.90
69530;BMP180;56727;47.188;8.840;2023-12-28T10:30:22;97419.00;;;12.90
69530;BMP180;56727;47.188;8.840;2023-12-28T10:32:48;97418.80;;;12.90
69530;BMP180;56727;47.188;8.840;2023-12-28T10:35:15;97415.80;;;12.90
69530;BMP180;56727;47.188;8.840;2023-12-28T10:37:42;97418.00;;;12.90
69530;BMP180;56727;47.188;8.840;2023-12-28T10:40:13;97418.80;;;12.92
69530;BMP180;56727;47.188;8.840;2023-12-28T10:43:06;97414.20;;;12.96
69530;BMP180;56727;47.188;8.840;2023-12-28T10:45:34;97409.20;;;13.00
69530;BMP180;56727;47.188;8.840;2023-12-28T10:48:11;97408.80;;;13.00
69530;BMP180;56727;47.188;8.840;2023-12-28T10:50:45;97409.80;;;13.00
69530;BMP180;56727;47.188;8.840;2023-12-28T10:53:49;97399.60;;;12.98
69530;BMP180;56727;47.188;8.840;2023-12-28T10:56:41;97392.20;;;13.00
69530;BMP180;56727;47.188;8.840;2023-12-28T10:59:51;97404.80;;;13.02
69530;BMP180;56727;47.188;8.840;2023-12-28T11:02:22;97400.80;;;13.08
69530;BMP180;56727;47.188;8.840;2023-12-28T11:04:54;97398.80;;;13.00
69530;BMP180;56727;47.188;8.840;2023-12-28T11:07:21;97398.20;;;13.00
69530;BMP180;56727;47.188;8.840;2023-12-28T11:09:48;97404.40;;;12.98
69530;BMP180;56727;47.188;8.840;2023-12-28T11:12:16;97404.80;;;12.96
69530;BMP180;56727;47.188;8.840;2023-12-28T11:14:48;97403.40;;;13.00
69530;BMP180;56727;47.188;8.840;2023-12-28T11:17:16;97401.00;;;13.00
69530;BMP180;56727;47.188;8.840;2023-12-28T11:19:43;97389.60;;;13.00
69530;BMP180;56727;47.188;8.840;2023-12-28T11:22:10;97396.00;;;12.94
69530;BMP180;56727;47.188;8.840;2023-12-28T11:24:36;97392.20;;;12.90
69530;BMP180;56727;47.188;8.840;2023-12-28T11:27:02;97387.40;;;12.90
69530;BMP180;56727;47.188;8.840;2023-12-28T11:29:30;97386.80;;;12.90
69530;BMP180;56727;47.188;8.840;2023-12-28T11:32:00;97380.40;;;12.90
69530;BMP180;56727;47.188;8.840;2023-12-28T11:34:31;97377.40;;;12.96
69530;BMP180;56727;47.188;8.840;2023-12-28T11:37:07;97380.80;;;13.00
69530;BMP180;56727;47.188;8.840;2023-12-28T11:39:36;97380.80;;;13.04
69530;BMP180;56727;47.188;8.840;2023-12-28T11:42:07;97385.60;;;13.10
69530;BMP180;56727;47.188;8.840;2023-12-28T11:44:42;97377.20;;;13.10
69530;BMP180;56727;47.188;8.840;2023-12-28T11:47:21;97377.60;;;13.20
69530;BMP180;56727;47.188;8.840;2023-12-28T11:49:48;97374.20;;;13.20
69530;BMP180;56727;47.188;8.840;2023-12-28T11:52:31;97369.40;;;13.20
69530;BMP180;56727;47.188;8.840;2023-12-28T11:54:58;97372.20;;;13.28
69530;BMP180;56727;47.188;8.840;2023-12-28T11:57:25;97364.20;;;13.30
69530;BMP180;56727;47.188;8.840;2023-12-28T12:00:00;97355.20;;;13.30
69530;BMP180;56727;47.188;8.840;2023-12-28T12:02:26;97347.60;;;13.30
69530;BMP180;56727;47.188;8.840;2023-12-28T12:04:56;97357.00;;;13.36
69530;BMP180;56727;47.188;8.840;2023-12-28T12:07:27;97363.00;;;13.38
69530;BMP180;56727;47.188;8.840;2023-12-28T12:09:58;97366.00;;;13.40
69530;BMP180;56727;47.188;8.840;2023-12-28T12:12:25;97370.60;;;13.40
69530;BMP180;56727;47.188;8.840;2023-12-28T12:14:51;97373.40;;;13.42
69530;BMP180;56727;47.188;8.840;2023-12-28T12:17:17;97371.40;;;13.46
69530;BMP180;56727;47.188;8.840;2023-12-28T12:19:45;97362.40;;;13.50
69530;BMP180;56727;47.188;8.840;2023-12-28T12:22:16;97356.60;;;13.54
69530;BMP180;56727;47.188;8.840;2023-12-28T12:24:44;97358.40;;;13.58
69530;BMP180;56727;47.188;8.840;2023-12-28T12:27:12;97361.60;;;13.60
69530;BMP180;56727;47.188;8.840;2023-12-28T12:29:38;97354.80;;;13.62
69530;BMP180;56727;47.188;8.840;2023-12-28T12:32:04;97353.00;;;13.70
69530;BMP180;56727;47.188;8.840;2023-12-28T12:34:30;97347.80;;;13.70
69530;BMP180;56727;47.188;8.840;2023-12-28T12:36:56;97341.60;;;13.72
69530;BMP180;56727;47.188;8.840;2023-12-28T12:39:24;97340.20;;;13.76
69530;BMP180;56727;47.188;8.840;2023-12-28T12:41:50;97347.40;;;13.80
69530;BMP180;56727;47.188;8.840;2023-12-28T12:44:19;97344.20;;;13.80
69530;BMP180;56727;47.188;8.840;2023-12-28T12:46:46;97340.80;;;13.80
69530;BMP180;56727;47.188;8.840;2023-12-28T12:49:12;97340.80;;;13.84
69530;BMP180;56727;47.188;8.840;2023-12-28T12:51:38;97346.00;;;13.88
69530;BMP180;56727;47.188;8.840;2023-12-28T12:54:07;97347.20;;;13.88
69530;BMP180;56727;47.188;8.840;2023-12-28T12:56:34;97348.80;;;13.90
69530;BMP180;56727;47.188;8.840;2023-12-28T12:59:00;97349.40;;;13.90
69530;BMP180;56727;47.188;8.840;2023-12-28T13:01:26;97355.60;;;13.90
69530;BMP180;56727;47.188;8.840;2023-12-28T13:03:52;97353.80;;;13.90
69530;BMP180;56727;47.188;8.840;2023-12-28T13:06:18;97351.20;;;13.90
69530;BMP180;56727;47.188;8.840;2023-12-28T13:08:48;97353.00;;;13.94
69530;BMP180;56727;47.188;8.840;2023-12-28T13:11:14;97350.80;;;14.00
69530;BMP180;56727;47.188;8.840;2023-12-28T13:13:41;97349.40;;;14.00
69530;BMP180;56727;47.188;8.840;2023-12-28T13:16:07;97347.20;;;14.00
69530;BMP180;56727;47.188;8.840;2023-12-28T13:18:33;97345.40;;;14.00
69530;BMP180;56727;47.188;8.840;2023-12-28T13:21:01;97346.00;;;14.00
69530;BMP180;56727;47.188;8.840;2023-12-28T13:23:28;97348.80;;;14.00
69530;BMP180;56727;47.188;8.840;2023-12-28T13:25:54;97350.60;;;13.94
69530;BMP180;56727;47.188;8.840;2023-12-28T13:28:20;97358.80;;;13.90
69530;BMP180;56727;47.188;8.840;2023-12-28T13:30:46;97358.20;;;13.90
69530;BMP180;56727;47.188;8.840;2023-12-28T13:33:12;97358.60;;;13.90
69530;BMP180;56727;47.188;8.840;2023-12-28T13:35:38;97367.20;;;13.90
69530;BMP180;56727;47.188;8.840;2023-12-28T13:38:03;97364.00;;;13.90
69530;BMP180;56727;47.188;8.840;2023-12-28T13:40:29;97359.60;;;13.96
69530;BMP180;56727;47.188;8.840;2023-12-28T13:42:58;97361.40;;;14.00
69530;BMP180;56727;47.188;8.840;2023-12-28T13:45:24;97365.80;;;14.04
69530;BMP180;56727;47.188;8.840;2023-12-28T13:47:50;97370.40;;;14.10
69530;BMP180;56727;47.188;8.840;2023-12-28T13:50:16;97369.60;;;14.18
69530;BMP180;56727;47.188;8.840;2023-12-28T13:52:42;97373.40;;;14.20
69530;BMP180;56727;47.188;8.840;2023-12-28T13:55:08;97370.80;;;14.20
69530;BMP180;56727;47.188;8.840;2023-12-28T13:57:34;97368.40;;;14.20
69530;BMP180;56727;47.188;8.840;2023-12-28T13:59:59;97372.80;;;14.20
69530;BMP180;56727;47.188;8.840;2023-12-28T14:02:27;97373.40;;;14.20
69530;BMP180;56727;47.188;8.840;2023-12-28T14:04:53;97368.40;;;14.20
69530;BMP180;56727;47.188;8.840;2023-12-28T14:07:22;97362.00;;;14.20
69530;BMP180;56727;47.188;8.840;2023-12-28T14:09:49;97359.60;;;14.20
69530;BMP180;56727;47.188;8.840;2023-12-28T14:12:14;97358.20;;;14.20